createdAt,value
2019-01-26T00:01:51.007Z,1.97
2019-01-26T00:04:22.115Z,2.01
2019-01-26T00:06:53.385Z,2.01
2019-01-26T00:09:24.727Z,1.88
2019-01-26T00:11:55.931Z,1.88
2019-01-26T00:14:27.062Z,1.79
2019-01-26T00:16:58.375Z,1.56
2019-01-26T00:19:29.680Z,1.58
2019-01-26T00:22:00.944Z,1.57
2019-01-26T00:24:32.239Z,1.52
2019-01-26T00:27:03.480Z,1.49
2019-01-26T00:29:34.927Z,1.49
2019-01-26T00:32:06.493Z,1.35
2019-01-26T00:34:37.870Z,1.31
2019-01-26T00:37:09.137Z,1.55
2019-01-26T00:39:40.289Z,1.55
2019-01-26T00:42:11.543Z,1.52
2019-01-26T00:44:42.678Z,1.49
2019-01-26T00:47:13.879Z,1.56
2019-01-26T00:49:45.297Z,1.43
2019-01-26T00:52:16.400Z,1.45
2019-01-26T00:54:47.631Z,1.46
2019-01-26T00:57:18.660Z,1.33
2019-01-26T00:59:49.873Z,1.33
2019-01-26T01:02:21.099Z,1.35
2019-01-26T01:04:52.383Z,1.33
2019-01-26T01:07:23.608Z,1.29
2019-01-26T01:09:54.905Z,1.27
2019-01-26T01:12:26.060Z,1.31
2019-01-26T01:14:57.247Z,1.31
2019-01-26T01:17:28.507Z,1.25
2019-01-26T01:19:59.946Z,1.33
2019-01-26T01:22:31.095Z,1.33
2019-01-26T01:25:02.151Z,1.23
2019-01-26T01:27:33.267Z,1.09
2019-01-26T01:30:05.202Z,1.12
2019-01-26T01:32:36.334Z,1.22
2019-01-26T01:35:07.747Z,1.25
2019-01-26T01:37:39.045Z,1.20
2019-01-26T01:40:10.838Z,1.19
2019-01-26T01:42:42.554Z,1.35
2019-01-26T01:45:16.474Z,1.25
2019-01-26T01:47:47.831Z,1.22
2019-01-26T01:50:19.414Z,1.25
2019-01-26T01:52:50.794Z,1.19
2019-01-26T01:55:21.940Z,1.26
2019-01-26T01:57:53.256Z,1.12
2019-01-26T02:00:25.751Z,1.14
2019-01-26T02:02:56.848Z,1.17
2019-01-26T02:05:28.116Z,1.08
2019-01-26T02:07:59.170Z,0.99
2019-01-26T02:13:06.738Z,0.93
2019-01-26T02:15:37.999Z,0.91
2019-01-26T02:18:09.463Z,0.99
2019-01-26T02:20:40.935Z,1.05
2019-01-26T02:23:12.124Z,1.02
2019-01-26T02:25:43.378Z,0.79
2019-01-26T02:28:15.821Z,0.97
2019-01-26T02:30:47.315Z,0.87
2019-01-26T02:33:18.702Z,0.82
2019-01-26T02:35:49.875Z,0.88
2019-01-26T02:38:21.024Z,0.85
2019-01-26T02:40:52.384Z,0.75
2019-01-26T02:43:23.546Z,0.61
2019-01-26T02:45:55.753Z,0.60
2019-01-26T02:48:26.982Z,0.66
2019-01-26T02:50:58.257Z,0.74
2019-01-26T02:53:29.507Z,0.74
2019-01-26T02:56:00.643Z,0.65
2019-01-26T02:58:31.898Z,0.70
2019-01-26T03:01:03.194Z,0.74
2019-01-26T03:03:34.525Z,0.64
2019-01-26T03:06:06.009Z,0.65
2019-01-26T03:08:38.342Z,0.68
2019-01-26T03:11:09.792Z,0.54
2019-01-26T03:13:41.069Z,0.57
2019-01-26T03:16:12.168Z,0.59
2019-01-26T03:18:43.531Z,0.41
2019-01-26T03:21:14.841Z,0.32
2019-01-26T03:23:46.006Z,0.47
2019-01-26T03:26:17.342Z,0.48
2019-01-26T03:28:48.421Z,0.31
2019-01-26T03:31:19.694Z,0.41
2019-01-26T03:33:51.000Z,0.55
2019-01-26T03:36:22.214Z,0.50
2019-01-26T03:38:54.738Z,0.45
2019-01-26T03:41:25.816Z,0.59
2019-01-26T03:43:56.880Z,0.55
2019-01-26T03:46:28.184Z,0.51
2019-01-26T03:48:59.444Z,0.56
2019-01-26T03:51:30.640Z,0.50
2019-01-26T03:54:01.723Z,0.48
2019-01-26T03:56:33.145Z,0.42
2019-01-26T03:59:04.849Z,0.35
2019-01-26T04:01:36.393Z,0.40
2019-01-26T04:04:07.829Z,0.35
2019-01-26T04:06:39.102Z,0.37
2019-01-26T04:09:10.917Z,0.40
2019-01-26T04:11:42.177Z,0.29
2019-01-26T04:14:13.459Z,0.33
2019-01-26T04:16:44.873Z,0.35
2019-01-26T04:19:16.017Z,0.53
2019-01-26T04:21:47.276Z,0.50
2019-01-26T04:24:18.434Z,0.31
2019-01-26T04:26:49.651Z,0.26
2019-01-26T04:29:20.871Z,0.26
2019-01-26T04:31:51.925Z,0.34
2019-01-26T04:34:23.137Z,0.32
2019-01-26T04:36:55.988Z,0.19
2019-01-26T04:39:27.306Z,0.22
2019-01-26T04:41:58.354Z,0.16
2019-01-26T04:44:29.681Z,0.22
2019-01-26T04:47:00.776Z,0.22
2019-01-26T04:49:32.195Z,0.27
2019-01-26T04:52:03.296Z,0.25
2019-01-26T04:54:35.407Z,0.22
2019-01-26T04:57:06.812Z,0.22
2019-01-26T04:59:38.049Z,0.24
2019-01-26T05:02:09.366Z,0.30
2019-01-26T05:04:40.456Z,0.36
2019-01-26T05:07:15.340Z,0.34
2019-01-26T05:09:46.445Z,0.34
2019-01-26T05:12:17.788Z,0.50
2019-01-26T05:14:49.166Z,0.46
2019-01-26T05:17:20.420Z,0.43
2019-01-26T05:19:51.389Z,0.36
2019-01-26T05:22:24.702Z,0.40
2019-01-26T05:24:56.117Z,0.26
2019-01-26T05:27:27.293Z,0.28
2019-01-26T05:29:58.593Z,0.23
2019-01-26T05:32:30.404Z,0.06
2019-01-26T05:35:01.622Z,0.01
2019-01-26T05:37:32.970Z,0.01
2019-01-26T05:40:04.798Z,0.13
2019-01-26T05:42:36.001Z,0.11
2019-01-26T05:45:08.446Z,0.21
2019-01-26T05:47:47.597Z,0.31
2019-01-26T05:50:18.317Z,0.20
2019-01-26T05:52:49.559Z,0.37
2019-01-26T05:55:20.832Z,0.42
2019-01-26T05:57:52.001Z,0.34
2019-01-26T06:00:30.527Z,0.25
2019-01-26T06:03:02.006Z,0.24
2019-01-26T06:05:33.278Z,0.19
2019-01-26T06:08:04.650Z,0.25
2019-01-26T06:10:36.148Z,0.28
2019-01-26T06:13:07.521Z,0.27
2019-01-26T06:15:38.837Z,0.32
2019-01-26T06:18:10.016Z,0.34
2019-01-26T06:20:41.273Z,0.33
2019-01-26T06:23:12.584Z,0.29
2019-01-26T06:25:43.693Z,0.38
2019-01-26T06:28:14.970Z,0.37
2019-01-26T06:30:47.965Z,0.40
2019-01-26T06:33:19.456Z,0.44
2019-01-26T06:35:50.838Z,0.42
2019-01-26T06:38:22.257Z,0.32
2019-01-26T06:40:53.509Z,0.30
2019-01-26T06:43:24.658Z,0.34
2019-01-26T06:45:55.999Z,0.28
2019-01-26T06:48:27.202Z,0.24
2019-01-26T06:50:58.570Z,0.26
2019-01-26T06:53:29.987Z,0.15
2019-01-26T06:56:00.981Z,0.14
2019-01-26T06:58:33.184Z,0.07
2019-01-26T07:01:04.646Z,0.15
2019-01-26T07:03:35.934Z,0.20
2019-01-26T07:06:19.536Z,0.17
2019-01-26T07:08:50.771Z,0.31
2019-01-26T07:11:22.071Z,0.28
2019-01-26T07:13:53.159Z,0.24
2019-01-26T07:16:25.182Z,0.27
2019-01-26T07:18:57.586Z,0.31
2019-01-26T07:21:28.913Z,0.28
2019-01-26T07:24:00.416Z,0.25
2019-01-26T07:26:31.671Z,0.25
2019-01-26T07:29:03.091Z,0.35
2019-01-26T07:31:34.496Z,0.30
2019-01-26T07:34:06.850Z,0.16
2019-01-26T07:36:40.042Z,0.40
2019-01-26T07:39:11.831Z,0.36
2019-01-26T07:41:42.923Z,0.54
2019-01-26T07:44:14.173Z,0.45
2019-01-26T07:46:45.376Z,0.44
2019-01-26T07:49:18.974Z,0.51
2019-01-26T07:51:50.248Z,0.63
2019-01-26T07:54:21.548Z,0.47
2019-01-26T07:56:52.868Z,0.29
2019-01-26T07:59:24.075Z,0.35
2019-01-26T08:01:55.496Z,0.42
2019-01-26T08:04:26.832Z,0.39
2019-01-26T08:06:58.132Z,0.30
2019-01-26T08:09:29.262Z,0.19
2019-01-26T08:12:00.640Z,0.05
2019-01-26T08:14:31.959Z,0.20
2019-01-26T08:17:03.190Z,0.38
2019-01-26T08:19:34.425Z,0.35
2019-01-26T08:22:05.781Z,0.27
2019-01-26T08:24:37.181Z,0.33
2019-01-26T08:27:08.312Z,0.42
2019-01-26T08:29:39.619Z,0.38
2019-01-26T08:32:10.939Z,0.28
2019-01-26T08:34:42.121Z,0.31
2019-01-26T08:37:13.595Z,0.31
2019-01-26T08:39:44.832Z,0.31
2019-01-26T08:42:15.951Z,0.06
2019-01-26T08:44:47.169Z,-0.04
2019-01-26T08:47:18.361Z,-0.09
2019-01-26T08:49:49.617Z,-0.11
2019-01-26T08:52:20.940Z,-0.07
2019-01-26T08:54:54.294Z,0.14
2019-01-26T08:57:25.206Z,0.06
2019-01-26T08:59:56.525Z,0.06
2019-01-26T09:03:04.901Z,0.12
2019-01-26T09:05:40.986Z,0.35
2019-01-26T09:08:13.964Z,0.55
2019-01-26T09:10:45.251Z,0.73
2019-01-26T09:13:17.622Z,0.73
2019-01-26T09:15:48.961Z,0.87
2019-01-26T09:18:20.316Z,0.97
2019-01-26T09:20:51.793Z,1.01
2019-01-26T09:23:22.882Z,1.21
2019-01-26T09:25:54.447Z,1.31
2019-01-26T09:28:25.409Z,1.50
2019-01-26T09:30:56.518Z,1.50
2019-01-26T09:33:28.563Z,1.38
2019-01-26T09:36:00.344Z,1.37
2019-01-26T09:38:31.718Z,1.37
2019-01-26T09:41:03.391Z,1.42
2019-01-26T09:43:34.799Z,1.56
2019-01-26T09:46:06.307Z,1.60
2019-01-26T09:48:37.660Z,1.64
2019-01-26T09:51:09.101Z,1.72
2019-01-26T09:53:40.199Z,1.72
2019-01-26T09:56:11.564Z,1.70
2019-01-26T09:58:42.854Z,1.40
2019-01-26T10:01:14.302Z,1.47
2019-01-26T10:03:45.714Z,1.52
2019-01-26T10:06:17.177Z,1.24
2019-01-26T10:08:48.552Z,1.16
2019-01-26T10:11:19.700Z,1.08
2019-01-26T10:13:50.959Z,1.06
2019-01-26T10:16:22.491Z,1.23
2019-01-26T10:18:55.238Z,1.29
2019-01-26T10:21:26.498Z,1.29
2019-01-26T10:23:57.622Z,1.39
2019-01-26T10:26:28.823Z,1.47
2019-01-26T10:29:00.065Z,1.55
2019-01-26T10:31:31.397Z,1.53
2019-01-26T10:34:02.679Z,1.67
2019-01-26T10:36:48.127Z,1.65
2019-01-26T10:39:19.629Z,1.50
2019-01-26T10:42:10.105Z,1.64
2019-01-26T10:44:42.444Z,1.66
2019-01-26T10:47:13.607Z,1.67
2019-01-26T10:49:44.919Z,1.50
2019-01-26T10:52:16.164Z,1.43
2019-01-26T10:54:47.340Z,1.51
2019-01-26T10:57:18.760Z,1.51
2019-01-26T10:59:49.912Z,1.49
2019-01-26T11:02:21.223Z,1.36
2019-01-26T11:04:52.192Z,1.33
2019-01-26T11:07:23.346Z,1.17
2019-01-26T11:09:54.441Z,1.17
2019-01-26T11:12:25.765Z,1.24
2019-01-26T11:14:56.927Z,1.11
2019-01-26T11:17:28.253Z,1.18
2019-01-26T11:19:59.389Z,1.27
2019-01-26T11:22:30.768Z,1.25
2019-01-26T11:25:02.133Z,1.20
2019-01-26T11:27:33.438Z,1.17
2019-01-26T11:30:07.935Z,1.12
2019-01-26T11:32:39.201Z,1.21
2019-01-26T11:35:12.516Z,1.34
2019-01-26T11:37:43.910Z,1.40
2019-01-26T11:40:20.833Z,1.35
2019-01-26T11:42:53.776Z,1.34
2019-01-26T11:45:47.106Z,1.22
2019-01-26T11:48:21.759Z,1.23
2019-01-26T11:50:58.406Z,1.10
2019-01-26T11:53:29.803Z,1.24
2019-01-26T11:56:05.958Z,1.32
2019-01-26T11:58:37.297Z,1.32
2019-01-26T12:01:26.705Z,1.43
2019-01-26T12:04:16.568Z,1.40
2019-01-26T12:06:56.070Z,1.41
2019-01-26T12:09:27.235Z,1.41
2019-01-26T12:11:58.488Z,1.21
2019-01-26T12:14:29.762Z,1.25
2019-01-26T12:17:02.696Z,1.08
2019-01-26T12:19:34.061Z,1.12
2019-01-26T12:22:05.600Z,1.35
2019-01-26T12:24:36.867Z,1.43
2019-01-26T12:27:07.901Z,1.43
2019-01-26T12:29:39.174Z,1.44
2019-01-26T12:32:10.319Z,1.42
2019-01-26T12:34:41.502Z,1.44
2019-01-26T12:37:12.700Z,1.51
2019-01-26T12:39:44.010Z,1.58
2019-01-26T12:42:15.367Z,1.43
2019-01-26T12:44:46.683Z,1.25
2019-01-26T12:47:18.007Z,1.27
2019-01-26T12:49:49.317Z,1.26
2019-01-26T12:52:20.480Z,1.25
2019-01-26T12:54:51.856Z,1.28
2019-01-26T12:57:23.144Z,1.36
2019-01-26T12:59:54.343Z,1.30
2019-01-26T13:02:28.571Z,1.27
2019-01-26T13:04:59.841Z,1.34
2019-01-26T13:07:32.396Z,1.45
2019-01-26T13:10:03.879Z,1.17
2019-01-26T13:12:35.300Z,1.17
2019-01-26T13:15:07.420Z,1.10
2019-01-26T13:17:38.669Z,1.25
2019-01-26T13:20:11.443Z,1.13
2019-01-26T13:22:42.890Z,1.12
2019-01-26T13:25:15.712Z,1.06
2019-01-26T13:27:46.999Z,1.05
2019-01-26T13:30:19.706Z,1.02
2019-01-26T13:32:51.162Z,1.14
2019-01-26T13:35:22.374Z,1.18
2019-01-26T13:37:53.752Z,1.19
2019-01-26T13:40:25.336Z,1.13
2019-01-26T13:42:57.643Z,1.24
2019-01-26T13:45:29.050Z,1.31
2019-01-26T13:48:00.276Z,1.39
2019-01-26T13:50:31.741Z,1.45
2019-01-26T13:53:04.329Z,1.59
2019-01-26T13:55:35.743Z,1.51
2019-01-26T13:58:07.067Z,1.51
2019-01-26T14:00:38.707Z,1.52
2019-01-26T14:03:11.117Z,1.52
2019-01-26T14:05:42.323Z,1.40
2019-01-26T14:08:13.588Z,1.29
2019-01-26T14:10:45.035Z,1.23
2019-01-26T14:13:16.294Z,1.10
2019-01-26T14:15:47.640Z,1.04
2019-01-26T14:18:20.412Z,1.01
2019-01-26T14:20:51.820Z,1.16
2019-01-26T14:23:23.029Z,1.05
2019-01-26T14:25:54.443Z,1.12
2019-01-26T14:28:27.161Z,1.11
2019-01-26T14:31:02.801Z,1.11
2019-01-26T14:33:34.255Z,1.04
2019-01-26T14:36:06.937Z,1.09
2019-01-26T14:38:38.306Z,1.21
2019-01-26T14:41:12.281Z,1.13
2019-01-26T14:43:44.691Z,0.97
2019-01-26T14:46:16.029Z,1.01
2019-01-26T14:48:51.737Z,0.88
2019-01-26T14:51:23.126Z,0.93
2019-01-26T14:53:54.360Z,0.76
2019-01-26T14:56:25.567Z,0.81
2019-01-26T14:58:56.785Z,0.68
2019-01-26T15:01:27.999Z,0.70
2019-01-26T15:03:59.367Z,0.64
2019-01-26T15:06:32.873Z,0.60
2019-01-26T15:09:05.738Z,0.50
2019-01-26T15:11:37.039Z,0.45
2019-01-26T15:14:08.333Z,0.40
2019-01-26T15:16:39.637Z,0.30
2019-01-26T15:19:10.654Z,0.28
2019-01-26T15:21:41.964Z,0.17
2019-01-26T15:24:13.174Z,0.23
2019-01-26T15:26:44.504Z,0.22
2019-01-26T15:29:15.721Z,0.19
2019-01-26T15:31:47.005Z,0.19
2019-01-26T15:34:18.325Z,0.06
2019-01-26T15:36:49.571Z,-0.01
2019-01-26T15:39:21.694Z,-0.01
2019-01-26T15:41:53.188Z,-0.14
2019-01-26T15:44:24.536Z,-0.12
2019-01-26T15:46:55.856Z,-0.05
2019-01-26T15:49:27.115Z,-0.19
2019-01-26T15:51:58.578Z,-0.13
2019-01-26T15:54:31.370Z,-0.14
2019-01-26T15:57:02.860Z,-0.16
2019-01-26T15:59:34.155Z,-0.12
2019-01-26T16:02:05.732Z,-0.22
2019-01-26T16:04:37.142Z,-0.24
2019-01-26T16:07:08.686Z,-0.27
2019-01-26T16:09:40.023Z,-0.25
2019-01-26T16:12:11.235Z,-0.34
2019-01-26T16:14:42.521Z,-0.32
2019-01-26T16:17:13.898Z,-0.19
2019-01-26T16:19:45.172Z,-0.17
2019-01-26T16:22:16.491Z,-0.26
2019-01-26T16:24:48.006Z,-0.28
2019-01-26T16:27:19.475Z,-0.23
2019-01-26T16:29:50.719Z,-0.19
2019-01-26T16:32:22.029Z,-0.18
2019-01-26T16:34:53.466Z,-0.26
2019-01-26T16:37:24.751Z,-0.31
2019-01-26T16:39:56.045Z,-0.28
2019-01-26T16:42:27.466Z,-0.17
2019-01-26T16:44:58.811Z,-0.22
2019-01-26T16:47:30.090Z,-0.35
2019-01-26T16:50:01.450Z,-0.30
2019-01-26T16:52:32.640Z,-0.31
2019-01-26T16:55:04.057Z,-0.27
2019-01-26T16:57:35.278Z,-0.20
2019-01-26T17:00:10.904Z,-0.18
2019-01-26T17:02:42.398Z,-0.16
2019-01-26T17:05:14.058Z,-0.12
2019-01-26T17:07:45.416Z,-0.21
2019-01-26T17:10:17.893Z,-0.31
2019-01-26T17:12:49.498Z,-0.24
2019-01-26T17:15:21.270Z,-0.17
2019-01-26T17:17:52.514Z,-0.17
2019-01-26T17:20:26.114Z,-0.14
2019-01-26T17:22:57.918Z,-0.07
2019-01-26T17:25:29.131Z,0.01
2019-01-26T17:28:00.419Z,-0.03
2019-01-26T17:30:33.971Z,-0.04
2019-01-26T17:33:07.634Z,-0.14
2019-01-26T17:35:38.939Z,-0.11
2019-01-26T17:38:10.479Z,-0.18
2019-01-26T17:40:41.800Z,-0.20
2019-01-26T17:43:13.117Z,-0.17
2019-01-26T17:45:44.551Z,-0.24
2019-01-26T17:48:15.849Z,-0.23
2019-01-26T17:50:47.174Z,-0.27
2019-01-26T17:53:18.491Z,-0.24
2019-01-26T17:55:49.655Z,-0.32
2019-01-26T17:58:20.911Z,-0.39
2019-01-26T18:00:59.249Z,-0.42
2019-01-26T18:03:30.675Z,-0.42
2019-01-26T18:06:02.190Z,-0.33
2019-01-26T18:08:33.663Z,-0.28
2019-01-26T18:11:05.021Z,-0.26
2019-01-26T18:13:36.302Z,-0.39
2019-01-26T18:16:07.582Z,-0.34
2019-01-26T18:18:38.786Z,-0.35
2019-01-26T18:21:11.174Z,-0.35
2019-01-26T18:23:42.663Z,-0.33
2019-01-26T18:26:13.823Z,-0.33
2019-01-26T18:28:45.059Z,-0.32
2019-01-26T18:31:16.381Z,-0.46
2019-01-26T18:33:47.708Z,-0.51
2019-01-26T18:36:19.072Z,-0.45
2019-01-26T18:38:50.320Z,-0.47
2019-01-26T18:41:21.637Z,-0.41
2019-01-26T18:43:55.504Z,-0.29
2019-01-26T18:46:26.870Z,-0.34
2019-01-26T18:48:58.197Z,-0.25
2019-01-26T18:51:29.528Z,-0.22
2019-01-26T18:54:00.829Z,-0.29
2019-01-26T18:56:32.066Z,-0.44
2019-01-26T18:59:03.271Z,-0.44
2019-01-26T19:01:34.286Z,-0.37
2019-01-26T19:04:13.347Z,-0.44
2019-01-26T19:06:45.787Z,-0.37
2019-01-26T19:09:16.934Z,-0.39
2019-01-26T19:11:48.242Z,-0.32
2019-01-26T19:14:19.771Z,-0.28
2019-01-26T19:16:53.182Z,-0.23
2019-01-26T19:19:24.112Z,-0.21
2019-01-26T19:21:55.454Z,-0.13
2019-01-26T19:24:26.722Z,-0.15
2019-01-26T19:26:57.764Z,-0.32
2019-01-26T19:29:30.710Z,-0.33
2019-01-26T19:32:01.981Z,-0.33
2019-01-26T19:34:33.526Z,-0.31
2019-01-26T19:37:09.276Z,-0.18
2019-01-26T19:39:38.228Z,-0.07
2019-01-26T19:42:09.641Z,-0.04
2019-01-26T19:44:40.935Z,-0.10
2019-01-26T19:47:12.125Z,-0.03
2019-01-26T19:49:43.493Z,-0.15
2019-01-26T19:52:14.883Z,-0.18
2019-01-26T19:54:46.204Z,-0.06
2019-01-26T19:57:17.562Z,0.04
2019-01-26T19:59:50.951Z,0.01
2019-01-26T20:02:22.136Z,0.12
2019-01-26T20:04:53.605Z,0.12
2019-01-26T20:07:25.211Z,0.06
2019-01-26T20:09:56.517Z,0.07
2019-01-26T20:12:27.893Z,-0.02
2019-01-26T20:14:59.199Z,-0.01
2019-01-26T20:17:30.297Z,-0.12
2019-01-26T20:20:01.772Z,-0.13
2019-01-26T20:22:33.294Z,-0.15
2019-01-26T20:25:05.017Z,-0.18
2019-01-26T20:27:36.422Z,-0.26
2019-01-26T20:30:11.591Z,-0.34
2019-01-26T20:32:45.513Z,-0.43
2019-01-26T20:35:18.662Z,-0.45
2019-01-26T20:37:49.877Z,-0.49
2019-01-26T20:40:21.355Z,-0.44
2019-01-26T20:42:52.604Z,-0.40
2019-01-26T20:45:25.943Z,-0.52
2019-01-26T20:47:57.282Z,-0.66
2019-01-26T20:50:28.499Z,-0.72
2019-01-26T20:52:59.702Z,-0.79
2019-01-26T20:55:31.194Z,-0.71
2019-01-26T20:58:03.954Z,-0.76
2019-01-26T21:00:35.351Z,-0.80
2019-01-26T21:03:08.826Z,-0.97
2019-01-26T21:05:40.193Z,-1.01
2019-01-26T21:08:11.532Z,-0.91
2019-01-26T21:10:42.677Z,-0.99
2019-01-26T21:13:16.371Z,-1.09
2019-01-26T21:15:47.159Z,-1.07
2019-01-26T21:18:18.441Z,-1.02
2019-01-26T21:20:49.796Z,-0.92
2019-01-26T21:23:21.004Z,-0.94
2019-01-26T21:25:52.162Z,-1.04
2019-01-26T21:28:23.408Z,-1.04
2019-01-26T21:30:56.598Z,-1.12
2019-01-26T21:33:27.779Z,-1.12
2019-01-26T21:35:59.191Z,-1.10
2019-01-26T21:38:31.794Z,-1.15
2019-01-26T21:41:03.047Z,-1.08
2019-01-26T21:43:34.243Z,-1.14
2019-01-26T21:46:06.037Z,-1.10
2019-01-26T21:48:39.638Z,-1.04
2019-01-26T21:51:11.002Z,-1.14
2019-01-26T21:53:43.265Z,-1.07
2019-01-26T21:56:16.529Z,-1.05
2019-01-26T21:58:47.628Z,-0.96
2019-01-26T22:01:18.843Z,-1.04
2019-01-26T22:03:50.298Z,-1.06
2019-01-26T22:06:21.608Z,-1.04
2019-01-26T22:08:55.156Z,-0.96
2019-01-26T22:11:26.376Z,-0.92
2019-01-26T22:13:57.749Z,-0.92
2019-01-26T22:16:29.161Z,-0.78
2019-01-26T22:19:00.565Z,-0.78
2019-01-26T22:21:31.841Z,-0.80
2019-01-26T22:24:03.169Z,-0.75
2019-01-26T22:26:34.397Z,-0.70
2019-01-26T22:29:05.930Z,-0.63
2019-01-26T22:31:37.256Z,-0.48
2019-01-26T22:34:08.567Z,-0.50
2019-01-26T22:36:39.940Z,-0.41
2019-01-26T22:39:11.234Z,-0.43
2019-01-26T22:41:42.530Z,-0.40
2019-01-26T22:44:13.820Z,-0.26
2019-01-26T22:46:45.034Z,-0.32
2019-01-26T22:49:16.241Z,-0.20
2019-01-26T22:51:53.277Z,-0.18
2019-01-26T22:54:20.553Z,-0.15
2019-01-26T22:56:51.829Z,-0.13
2019-01-26T22:59:23.034Z,-0.29
2019-01-26T23:02:01.735Z,-0.36
2019-01-26T23:04:57.017Z,-0.37
2019-01-26T23:07:35.222Z,-0.42
2019-01-26T23:10:47.345Z,-0.41
2019-01-26T23:13:45.676Z,-0.46
2019-01-26T23:16:55.560Z,-0.44
2019-01-26T23:19:37.408Z,-0.43
2019-01-26T23:22:46.915Z,-0.43
2019-01-26T23:25:48.619Z,-0.37
2019-01-26T23:28:32.744Z,-0.32
2019-01-26T23:31:21.745Z,-0.32
2019-01-26T23:33:57.935Z,-0.28
2019-01-26T23:36:29.121Z,-0.27
2019-01-26T23:39:02.419Z,-0.22
2019-01-26T23:41:34.065Z,-0.16
2019-01-26T23:44:05.530Z,-0.05
2019-01-26T23:46:37.097Z,-0.08
2019-01-26T23:49:08.323Z,-0.07
2019-01-26T23:51:39.866Z,-0.08
2019-01-26T23:54:10.920Z,-0.10
2019-01-26T23:56:42.307Z,-0.25
2019-01-26T23:59:13.435Z,-0.09
